createdAt,value
2023-04-02T00:00:29.600Z,1.50
2023-04-02T00:03:00.336Z,1.33
2023-04-02T00:05:34.938Z,1.20
2023-04-02T00:08:10.533Z,1.23
2023-04-02T00:10:49.208Z,1.42
2023-04-02T00:13:16.174Z,1.30
2023-04-02T00:15:44.746Z,1.10
2023-04-02T00:18:19.333Z,1.10
2023-04-02T00:20:48.979Z,1.20
2023-04-02T00:23:16.111Z,1.23
2023-04-02T00:25:45.663Z,1.27
2023-04-02T00:28:14.202Z,1.17
2023-04-02T00:30:54.758Z,1.30
2023-04-02T00:33:27.385Z,1.25
2023-04-02T00:35:54.982Z,1.30
2023-04-02T00:38:26.490Z,0.82
2023-04-02T00:40:55.014Z,1.00
2023-04-02T00:43:28.169Z,0.90
2023-04-02T00:45:56.614Z,0.82
2023-04-02T00:48:32.449Z,1.10
2023-04-02T00:51:14.079Z,1.25
2023-04-02T00:53:40.996Z,1.30
2023-04-02T00:56:19.281Z,1.13
2023-04-02T00:58:46.476Z,1.20
2023-04-02T01:01:22.985Z,1.23
2023-04-02T01:04:03.469Z,1.08
2023-04-02T01:06:37.638Z,1.10
2023-04-02T01:09:29.179Z,1.40
2023-04-02T01:12:07.559Z,1.40
2023-04-02T01:14:37.576Z,1.30
2023-04-02T01:17:18.709Z,1.30
2023-04-02T01:20:10.539Z,1.60
2023-04-02T01:23:06.074Z,1.30
2023-04-02T01:25:41.580Z,1.50
2023-04-02T01:28:46.076Z,1.40
2023-04-02T01:31:13.189Z,1.77
2023-04-02T01:33:40.131Z,1.67
2023-04-02T01:36:15.736Z,1.60
2023-04-02T01:38:52.178Z,1.75
2023-04-02T01:41:29.719Z,2.13
2023-04-02T01:44:01.710Z,1.95
2023-04-02T01:46:33.564Z,1.83
2023-04-02T01:49:02.758Z,2.08
2023-04-02T01:51:34.127Z,2.50
2023-04-02T01:54:04.968Z,2.50
2023-04-02T01:56:32.055Z,3.10
2023-04-02T01:58:59.335Z,2.75
2023-04-02T02:01:52.118Z,2.08
2023-04-02T02:04:19.436Z,2.20
2023-04-02T02:06:47.256Z,2.38
2023-04-02T02:09:23.309Z,2.53
2023-04-02T02:11:51.073Z,2.83
2023-04-02T02:14:20.008Z,2.30
2023-04-02T02:16:47.085Z,2.55
2023-04-02T02:19:37.243Z,2.33
2023-04-02T02:24:50.659Z,3.15
2023-04-02T02:27:22.060Z,3.60
2023-04-02T02:30:05.000Z,2.05
2023-04-02T02:32:32.879Z,2.50
2023-04-02T02:35:07.960Z,2.42
2023-04-02T02:37:40.921Z,2.97
2023-04-02T02:40:12.754Z,2.67
2023-04-02T02:42:41.318Z,2.50
2023-04-02T02:45:13.909Z,2.85
2023-04-02T02:47:41.022Z,2.60
2023-04-02T02:50:22.213Z,2.70
2023-04-02T02:52:54.769Z,3.75
2023-04-02T02:55:24.292Z,3.28
2023-04-02T02:58:20.234Z,3.03
2023-04-02T03:00:57.628Z,3.35
2023-04-02T03:03:27.611Z,3.17
2023-04-02T03:06:02.327Z,3.13
2023-04-02T03:08:33.731Z,3.05
2023-04-02T03:11:10.895Z,3.00
2023-04-02T03:13:39.187Z,3.45
2023-04-02T03:16:18.825Z,3.05
2023-04-02T03:18:58.313Z,3.10
2023-04-02T03:21:33.472Z,3.30
2023-04-02T03:24:02.802Z,3.60
2023-04-02T03:26:37.982Z,3.50
2023-04-02T03:29:27.232Z,3.08
2023-04-02T03:32:00.007Z,2.72
2023-04-02T03:34:28.212Z,3.20
2023-04-02T03:37:11.431Z,3.60
2023-04-02T03:39:48.027Z,2.90
2023-04-02T03:42:30.054Z,3.90
2023-04-02T03:45:05.933Z,3.20
2023-04-02T03:47:38.814Z,2.85
2023-04-02T03:50:22.685Z,2.97
2023-04-02T03:52:51.218Z,2.97
2023-04-02T03:55:24.454Z,2.60
2023-04-02T03:57:54.163Z,3.30
2023-04-02T04:00:27.442Z,2.60
2023-04-02T04:03:06.288Z,2.97
2023-04-02T04:05:36.027Z,2.90
2023-04-02T04:08:06.907Z,3.03
2023-04-02T04:10:33.961Z,3.70
2023-04-02T04:13:16.003Z,2.90
2023-04-02T04:15:48.357Z,3.03
2023-04-02T04:18:38.078Z,2.90
2023-04-02T04:21:16.220Z,2.33
2023-04-02T04:23:50.822Z,2.67
2023-04-02T04:26:39.647Z,3.13
2023-04-02T04:29:19.759Z,3.13
2023-04-02T04:34:42.404Z,3.60
2023-04-02T04:37:25.323Z,2.35
2023-04-02T04:40:00.178Z,3.00
2023-04-02T04:42:29.185Z,2.85
2023-04-02T04:45:07.042Z,2.97
2023-04-02T04:47:37.114Z,2.50
2023-04-02T04:50:28.280Z,2.80
2023-04-02T04:52:55.758Z,3.45
2023-04-02T04:55:31.337Z,2.42
2023-04-02T04:58:04.205Z,2.40
2023-04-02T05:00:55.464Z,2.10
2023-04-02T05:03:35.993Z,2.35
2023-04-02T05:06:09.979Z,2.42
2023-04-02T05:08:43.148Z,2.20
2023-04-02T05:11:16.308Z,2.53
2023-04-02T05:13:55.003Z,1.63
2023-04-02T05:16:43.372Z,2.40
2023-04-02T05:19:32.880Z,2.15
2023-04-02T05:22:06.424Z,3.22
2023-04-02T05:25:10.029Z,2.58
2023-04-02T05:27:42.273Z,2.50
2023-04-02T05:30:25.586Z,1.65
2023-04-02T05:33:05.212Z,2.47
2023-04-02T05:35:36.786Z,2.58
2023-04-02T05:38:04.456Z,2.25
2023-04-02T05:40:41.026Z,2.40
2023-04-02T05:43:09.951Z,2.47
2023-04-02T05:45:41.440Z,2.35
2023-04-02T05:48:27.657Z,2.10
2023-04-02T05:50:56.767Z,2.22
2023-04-02T05:53:54.305Z,1.55
2023-04-02T05:56:39.343Z,2.00
2023-04-02T05:59:23.464Z,2.15
2023-04-02T06:02:00.666Z,2.47
2023-04-02T06:04:48.888Z,1.75
2023-04-02T06:07:20.300Z,2.00
2023-04-02T06:10:15.626Z,1.60
2023-04-02T06:12:52.471Z,2.30
2023-04-02T06:15:22.032Z,1.90
2023-04-02T06:17:53.454Z,1.92
2023-04-02T06:20:21.079Z,1.90
2023-04-02T06:23:05.007Z,1.90
2023-04-02T06:25:35.500Z,1.90
2023-04-02T06:28:04.987Z,1.50
2023-04-02T06:30:33.175Z,1.77
2023-04-02T06:33:01.353Z,1.97
2023-04-02T06:35:29.837Z,2.00
2023-04-02T06:38:01.522Z,1.48
2023-04-02T06:40:50.600Z,2.05
2023-04-02T06:43:42.328Z,2.10
2023-04-02T06:46:32.100Z,1.77
2023-04-02T06:49:29.297Z,1.90
2023-04-02T06:52:01.569Z,1.88
2023-04-02T06:54:30.061Z,2.38
2023-04-02T06:57:01.108Z,1.58
2023-04-02T06:59:34.495Z,1.58
2023-04-02T07:02:06.861Z,1.85
2023-04-02T07:04:34.477Z,1.67
2023-04-02T07:07:02.419Z,1.70
2023-04-02T07:09:33.409Z,1.85
2023-04-02T07:12:02.830Z,1.77
2023-04-02T07:14:30.083Z,2.10
2023-04-02T07:16:57.162Z,1.80
2023-04-02T07:19:24.152Z,1.70
2023-04-02T07:21:55.537Z,1.60
2023-04-02T07:24:24.215Z,2.05
2023-04-02T07:26:51.550Z,1.50
2023-04-02T07:29:20.065Z,2.00
2023-04-02T07:31:47.109Z,1.80
2023-04-02T07:34:14.138Z,2.05
2023-04-02T07:36:41.885Z,1.80
2023-04-02T07:39:08.902Z,2.10
2023-04-02T07:41:53.122Z,1.77
2023-04-02T07:44:20.137Z,1.90
2023-04-02T07:46:47.136Z,2.00
2023-04-02T07:49:14.162Z,1.90
2023-04-02T07:51:41.330Z,1.92
2023-04-02T07:54:10.447Z,1.73
2023-04-02T07:56:37.628Z,2.28
2023-04-02T07:59:05.128Z,2.03
2023-04-02T08:01:38.030Z,1.67
2023-04-02T08:04:05.906Z,1.77
2023-04-02T08:06:32.880Z,1.55
2023-04-02T08:08:59.849Z,1.90
2023-04-02T08:11:27.179Z,1.50
2023-04-02T08:13:54.200Z,1.90
2023-04-02T08:16:21.422Z,1.98
2023-04-02T08:18:48.429Z,1.67
2023-04-02T08:21:16.479Z,1.67
2023-04-02T08:23:43.733Z,1.92
2023-04-02T08:26:10.680Z,1.48
2023-04-02T08:28:37.727Z,1.75
2023-04-02T08:31:05.087Z,1.83
2023-04-02T08:33:32.217Z,1.98
2023-04-02T08:35:59.422Z,1.80
2023-04-02T08:38:26.694Z,1.85
2023-04-02T08:40:56.023Z,1.77
2023-04-02T08:43:29.035Z,1.70
2023-04-02T08:46:01.923Z,1.65
2023-04-02T08:48:28.883Z,2.03
2023-04-02T08:50:57.381Z,1.80
2023-04-02T08:53:35.840Z,2.00
2023-04-02T08:56:08.694Z,1.50
2023-04-02T08:58:47.276Z,1.67
2023-04-02T09:01:43.840Z,1.88
2023-04-02T09:04:15.532Z,1.80
2023-04-02T09:06:44.019Z,1.88
2023-04-02T09:09:12.614Z,1.95
2023-04-02T09:11:48.938Z,1.77
2023-04-02T09:14:20.706Z,1.50
2023-04-02T09:16:53.234Z,1.73
2023-04-02T09:19:26.005Z,1.60
2023-04-02T09:22:17.677Z,2.17
2023-04-02T09:24:44.686Z,1.70
2023-04-02T09:27:22.650Z,1.88
2023-04-02T09:30:06.840Z,2.05
2023-04-02T09:32:54.706Z,1.90
2023-04-02T09:35:32.734Z,1.67
2023-04-02T09:38:35.468Z,1.85
2023-04-02T09:41:02.481Z,2.10
2023-04-02T09:43:37.144Z,2.00
2023-04-02T09:46:20.837Z,1.77
2023-04-02T09:48:53.416Z,1.70
2023-04-02T09:51:23.058Z,1.40
2023-04-02T09:53:51.924Z,1.80
2023-04-02T09:56:19.726Z,2.33
2023-04-02T09:58:47.475Z,1.90
2023-04-02T10:01:34.640Z,2.10
2023-04-02T10:04:03.714Z,1.77
2023-04-02T10:06:31.187Z,1.80
2023-04-02T10:08:58.229Z,2.00
2023-04-02T10:11:43.747Z,1.80
2023-04-02T10:14:22.032Z,1.98
2023-04-02T10:16:52.550Z,1.70
2023-04-02T10:19:56.355Z,2.08
2023-04-02T10:22:23.608Z,2.10
2023-04-02T10:24:51.016Z,1.98
2023-04-02T10:27:18.128Z,1.63
2023-04-02T10:29:54.543Z,1.75
2023-04-02T10:32:53.711Z,2.42
2023-04-02T10:35:35.861Z,1.90
2023-04-02T10:38:24.918Z,1.60
2023-04-02T10:40:59.734Z,1.52
2023-04-02T10:44:06.154Z,1.95
2023-04-02T10:46:45.354Z,1.90
2023-04-02T10:49:33.586Z,2.30
2023-04-02T10:52:36.304Z,1.52
2023-04-02T10:55:06.339Z,1.80
2023-04-02T10:57:33.334Z,1.55
2023-04-02T11:00:19.041Z,1.90
2023-04-02T11:03:03.124Z,1.70
2023-04-02T11:05:37.594Z,2.03
2023-04-02T11:08:18.990Z,1.45
2023-04-02T11:10:49.112Z,1.70
2023-04-02T11:13:40.860Z,2.00
2023-04-02T11:16:08.046Z,1.92
2023-04-02T11:18:38.889Z,1.40
2023-04-02T11:21:06.983Z,1.63
2023-04-02T11:23:53.605Z,1.80
2023-04-02T11:26:41.526Z,1.77
2023-04-02T11:29:16.026Z,1.52
2023-04-02T11:31:43.117Z,2.05
2023-04-02T11:34:32.762Z,1.75
2023-04-02T11:37:00.428Z,1.58
2023-04-02T11:39:46.494Z,1.83
2023-04-02T11:42:19.635Z,2.13
2023-04-02T11:44:46.675Z,1.70
2023-04-02T11:47:21.046Z,1.58
2023-04-02T11:49:57.760Z,1.55
2023-04-02T11:52:32.278Z,1.58
2023-04-02T11:55:24.564Z,2.28
2023-04-02T11:58:17.881Z,1.67
2023-04-02T12:01:19.749Z,1.90
2023-04-02T12:03:52.650Z,1.73
2023-04-02T12:06:42.531Z,1.60
2023-04-02T12:11:45.876Z,1.80
2023-04-02T12:14:46.036Z,1.50
2023-04-02T12:17:32.120Z,1.50
2023-04-02T12:20:09.756Z,1.80
2023-04-02T12:22:39.985Z,1.70
2023-04-02T12:25:33.938Z,1.55
2023-04-02T12:28:10.259Z,1.40
2023-04-02T12:30:38.097Z,1.52
2023-04-02T12:33:20.586Z,1.75
2023-04-02T12:35:47.995Z,1.92
2023-04-02T12:38:23.239Z,1.33
2023-04-02T12:40:57.053Z,1.70
2023-04-02T12:43:28.456Z,1.73
2023-04-02T12:45:56.645Z,1.40
2023-04-02T12:48:24.083Z,2.33
2023-04-02T12:50:51.143Z,1.50
2023-04-02T12:53:26.474Z,1.52
2023-04-02T12:55:53.587Z,1.38
2023-04-02T12:58:27.634Z,1.60
2023-04-02T13:01:19.376Z,1.50
2023-04-02T13:04:09.105Z,1.63
2023-04-02T13:09:05.662Z,1.42
2023-04-02T13:11:37.004Z,1.63
2023-04-02T13:14:05.209Z,1.60
2023-04-02T13:16:35.183Z,1.70
2023-04-02T13:19:16.953Z,1.38
2023-04-02T13:21:44.799Z,1.40
2023-04-02T13:24:22.351Z,1.38
2023-04-02T13:26:50.108Z,2.13
2023-04-02T13:29:32.965Z,1.92
2023-04-02T13:32:12.343Z,1.40
2023-04-02T13:34:39.305Z,1.38
2023-04-02T13:37:06.461Z,1.27
2023-04-02T13:39:33.440Z,1.40
2023-04-02T13:42:04.040Z,1.38
2023-04-02T13:44:32.039Z,1.42
2023-04-02T13:46:59.197Z,1.52
2023-04-02T13:49:26.431Z,1.20
2023-04-02T13:51:54.954Z,1.30
2023-04-02T13:54:37.945Z,1.33
2023-04-02T13:57:04.982Z,1.70
2023-04-02T13:59:31.951Z,1.75
2023-04-02T14:02:03.202Z,1.40
2023-04-02T14:04:33.177Z,1.55
2023-04-02T14:07:30.817Z,1.30
2023-04-02T14:10:08.217Z,1.52
2023-04-02T14:12:57.631Z,1.05
2023-04-02T14:15:46.651Z,1.40
2023-04-02T14:18:41.766Z,1.20
2023-04-02T14:21:21.444Z,1.48
2023-04-02T14:24:14.536Z,1.23
2023-04-02T14:27:16.826Z,1.75
2023-04-02T14:30:05.174Z,1.42
2023-04-02T14:32:37.530Z,1.70
2023-04-02T14:35:29.455Z,1.40
2023-04-02T14:38:31.156Z,1.60
2023-04-02T14:41:08.879Z,1.83
2023-04-02T14:43:44.531Z,1.42
2023-04-02T14:46:11.836Z,1.30
2023-04-02T14:48:56.760Z,1.38
2023-04-02T14:51:55.000Z,1.48
2023-04-02T14:54:45.314Z,1.30
2023-04-02T14:57:31.074Z,1.85
2023-04-02T15:00:16.791Z,1.30
2023-04-02T15:02:54.054Z,1.30
2023-04-02T15:05:56.705Z,1.27
2023-04-02T15:08:32.102Z,1.80
2023-04-02T15:11:10.218Z,1.38
2023-04-02T15:13:39.007Z,1.30
2023-04-02T15:16:13.940Z,1.73
2023-04-02T15:18:40.943Z,2.05
2023-04-02T15:21:19.900Z,1.30
2023-04-02T15:23:51.923Z,2.10
2023-04-02T15:26:22.035Z,1.50
2023-04-02T15:29:11.123Z,2.22
2023-04-02T15:31:44.101Z,2.35
2023-04-02T15:34:21.820Z,1.15
2023-04-02T15:37:12.361Z,1.25
2023-04-02T15:39:50.927Z,1.42
2023-04-02T15:42:43.501Z,1.45
2023-04-02T15:45:22.719Z,1.17
2023-04-02T15:48:02.630Z,1.70
2023-04-02T15:53:23.905Z,1.45
2023-04-02T15:55:57.780Z,1.42
2023-04-02T15:58:42.340Z,1.38
2023-04-02T16:01:23.060Z,1.80
2023-04-02T16:04:01.706Z,1.17
2023-04-02T16:06:49.560Z,1.30
2023-04-02T16:09:35.712Z,1.35
2023-04-02T16:12:14.106Z,1.60
2023-04-02T16:14:41.790Z,1.35
2023-04-02T16:17:24.477Z,1.45
2023-04-02T16:19:57.210Z,1.50
2023-04-02T16:22:29.146Z,1.50
2023-04-02T16:25:10.824Z,1.40
2023-04-02T16:27:43.300Z,1.50
2023-04-02T16:30:33.953Z,1.13
2023-04-02T16:33:07.079Z,1.40
2023-04-02T16:35:43.154Z,2.00
2023-04-02T16:38:22.662Z,1.40
2023-04-02T16:41:23.133Z,1.20
2023-04-02T16:44:02.214Z,1.70
2023-04-02T16:46:41.063Z,1.50
2023-04-02T16:49:20.415Z,1.20
2023-04-02T16:51:56.970Z,1.23
2023-04-02T16:54:39.502Z,1.80
2023-04-02T16:57:51.351Z,2.00
2023-04-02T17:00:31.063Z,1.60
2023-04-02T17:03:15.146Z,1.52
2023-04-02T17:06:26.584Z,1.40
2023-04-02T17:09:08.443Z,1.60
2023-04-02T17:11:58.555Z,1.52
2023-04-02T17:14:30.807Z,1.67
2023-04-02T17:17:02.627Z,1.60
2023-04-02T17:19:30.851Z,1.30
2023-04-02T17:22:07.873Z,1.20
2023-04-02T17:24:40.698Z,1.38
2023-04-02T17:27:26.419Z,1.38
2023-04-02T17:29:55.283Z,1.52
2023-04-02T17:32:25.509Z,1.60
2023-04-02T17:34:52.594Z,1.40
2023-04-02T17:37:35.148Z,2.05
2023-04-02T17:40:14.095Z,1.58
2023-04-02T17:42:45.606Z,1.30
2023-04-02T17:45:24.615Z,2.13
2023-04-02T17:48:29.243Z,1.80
2023-04-02T17:51:05.970Z,1.40
2023-04-02T17:53:51.696Z,1.40
2023-04-02T17:56:38.981Z,2.20
2023-04-02T17:59:33.404Z,2.00
2023-04-02T18:02:06.469Z,1.63
2023-04-02T18:04:46.242Z,1.67
2023-04-02T18:07:21.551Z,1.88
2023-04-02T18:10:02.926Z,1.85
2023-04-02T18:12:45.042Z,1.70
2023-04-02T18:15:35.970Z,1.67
2023-04-02T18:18:17.577Z,1.67
2023-04-02T18:21:25.925Z,2.20
2023-04-02T18:24:29.980Z,1.42
2023-04-02T18:27:08.671Z,1.60
2023-04-02T18:30:13.875Z,1.30
2023-04-02T18:33:13.103Z,1.13
2023-04-02T18:35:47.515Z,1.50
2023-04-02T18:38:20.007Z,1.92
2023-04-02T18:41:03.017Z,1.80
2023-04-02T18:43:52.364Z,1.80
2023-04-02T18:46:29.149Z,1.97
2023-04-02T18:48:59.387Z,1.52
2023-04-02T18:54:14.365Z,1.35
2023-04-02T18:56:41.393Z,1.52
2023-04-02T18:59:29.834Z,2.10
2023-04-02T19:01:56.832Z,1.60
2023-04-02T19:04:27.782Z,1.80
2023-04-02T19:07:04.817Z,1.52
2023-04-02T19:09:35.272Z,1.45
2023-04-02T19:12:04.025Z,1.70
2023-04-02T19:14:31.246Z,1.70
2023-04-02T19:17:36.181Z,2.65
2023-04-02T19:20:28.077Z,2.17
2023-04-02T19:23:24.732Z,2.00
2023-04-02T19:26:09.182Z,1.90
2023-04-02T19:28:59.053Z,1.80
2023-04-02T19:31:51.291Z,2.58
2023-04-02T19:34:41.092Z,1.58
2023-04-02T19:37:35.777Z,2.25
2023-04-02T19:40:19.770Z,2.30
2023-04-02T19:42:51.568Z,2.35
2023-04-02T19:45:28.783Z,2.78
2023-04-02T19:47:56.289Z,2.15
2023-04-02T19:50:23.286Z,2.03
2023-04-02T19:52:50.274Z,1.88
2023-04-02T19:55:17.340Z,2.10
2023-04-02T19:57:44.338Z,1.85
2023-04-02T20:00:15.169Z,1.83
2023-04-02T20:02:42.154Z,2.03
2023-04-02T20:05:09.555Z,2.00
2023-04-02T20:07:36.607Z,1.50
2023-04-02T20:10:03.566Z,2.20
2023-04-02T20:12:30.607Z,1.50
2023-04-02T20:14:57.542Z,2.17
2023-04-02T20:17:24.655Z,2.53
2023-04-02T20:19:51.662Z,2.00
2023-04-02T20:22:19.256Z,1.95
2023-04-02T20:24:46.402Z,2.22
2023-04-02T20:27:13.362Z,2.03
2023-04-02T20:29:42.446Z,2.67
2023-04-02T20:32:10.173Z,2.60
2023-04-02T20:34:37.161Z,2.40
2023-04-02T20:37:04.138Z,2.28
2023-04-02T20:39:31.048Z,1.73
2023-04-02T20:42:02.389Z,1.65
2023-04-02T20:44:30.007Z,2.08
2023-04-02T20:46:57.061Z,1.77
2023-04-02T20:49:23.978Z,2.00
2023-04-02T20:51:51.130Z,2.33
2023-04-02T20:54:18.117Z,2.03
2023-04-02T20:56:45.509Z,2.10
2023-04-02T20:59:12.448Z,2.10
2023-04-02T21:01:39.467Z,1.80
2023-04-02T21:04:06.446Z,2.10
2023-04-02T21:06:35.173Z,2.10
2023-04-02T21:09:03.219Z,1.90
2023-04-02T21:11:30.461Z,1.98
2023-04-02T21:13:57.684Z,1.90
2023-04-02T21:16:28.496Z,2.13
2023-04-02T21:18:56.228Z,2.13
2023-04-02T21:21:23.252Z,2.60
2023-04-02T21:23:55.595Z,2.08
2023-04-02T21:26:22.626Z,2.17
2023-04-02T21:28:49.608Z,2.30
2023-04-02T21:31:20.437Z,1.80
2023-04-02T21:33:48.940Z,2.00
2023-04-02T21:36:18.181Z,1.98
2023-04-02T21:38:46.538Z,1.97
2023-04-02T21:41:18.149Z,2.20
2023-04-02T21:43:46.248Z,2.30
2023-04-02T21:46:13.301Z,1.83
2023-04-02T21:48:41.935Z,2.30
2023-04-02T21:51:14.169Z,1.83
2023-04-02T21:53:41.310Z,2.30
2023-04-02T21:56:10.169Z,2.47
2023-04-02T21:58:37.235Z,1.88
2023-04-02T22:01:07.007Z,1.90
2023-04-02T22:03:36.011Z,1.90
2023-04-02T22:06:17.283Z,1.85
2023-04-02T22:08:44.646Z,1.80
2023-04-02T22:11:12.558Z,2.00
2023-04-02T22:13:39.925Z,1.83
2023-04-02T22:16:08.605Z,1.55
2023-04-02T22:18:35.776Z,1.95
2023-04-02T22:21:02.729Z,1.42
2023-04-02T22:23:29.829Z,1.40
2023-04-02T22:25:57.716Z,1.65
2023-04-02T22:28:24.950Z,1.33
2023-04-02T22:30:51.916Z,1.58
2023-04-02T22:33:19.093Z,1.63
2023-04-02T22:35:49.683Z,1.70
2023-04-02T22:38:16.666Z,1.25
2023-04-02T22:40:43.601Z,1.80
2023-04-02T22:43:10.774Z,1.35
2023-04-02T22:45:37.803Z,2.08
2023-04-02T22:48:04.831Z,1.70
2023-04-02T22:50:32.122Z,1.52
2023-04-02T22:52:59.041Z,1.40
2023-04-02T22:55:26.805Z,1.45
2023-04-02T22:57:53.845Z,1.17
2023-04-02T23:00:21.110Z,1.40
2023-04-02T23:02:48.087Z,1.30
2023-04-02T23:05:15.166Z,1.10
2023-04-02T23:07:42.333Z,1.15
2023-04-02T23:10:09.646Z,1.33
2023-04-02T23:12:36.698Z,1.10
2023-04-02T23:15:05.686Z,0.95
2023-04-02T23:17:32.873Z,1.15
2023-04-02T23:19:59.902Z,1.58
2023-04-02T23:22:26.867Z,1.10
2023-04-02T23:24:54.740Z,1.50
2023-04-02T23:27:22.398Z,1.15
2023-04-02T23:29:49.922Z,1.10
2023-04-02T23:32:17.214Z,1.23
2023-04-02T23:34:44.183Z,1.02
2023-04-02T23:37:11.191Z,1.42
2023-04-02T23:39:38.152Z,1.50
2023-04-02T23:42:05.239Z,1.23
2023-04-02T23:44:32.380Z,1.33
2023-04-02T23:46:59.862Z,1.00
2023-04-02T23:49:27.276Z,1.30
2023-04-02T23:51:54.287Z,1.10
2023-04-02T23:54:21.334Z,1.33
2023-04-02T23:56:48.339Z,1.25
2023-04-02T23:59:15.705Z,1.35
